Time;durP1;ratioP1;P1;durP2;ratioP2;P2;SDS_P1;SDS_P2;PMS_P1;PMS_P2;Temp;Humidity;BMP_temperature;BMP_pressure;BME280_temperature;BME280_humidity;BME280_pressure;Samples;Min_cycle;Max_cycle;Signal;HPM_P1;HPM_P2
2023/05/28 00:07:42;;;;;;;8.17;4.73;;;8.30;95.20;;;;;;4774078;29;21095;-84
2023/05/28 00:38:28;;;;;;;6.60;3.87;;;7.90;94.60;;;;;;4799185;29;20263;-84
2023/05/28 01:03:17;;;;;;;10.17;4.20;;;8.10;90.10;;;;;;4647161;29;20549;-87
2023/05/28 01:28:59;;;;;;;6.47;3.87;;;7.50;95.10;;;;;;4685339;29;20279;-83
2023/05/28 01:49:25;;;;;;;6.13;3.53;;;7.40;97.10;;;;;;4674318;29;20963;-85
2023/05/28 02:35:06;;;;;;;5.90;3.60;;;7.30;96.90;;;;;;4686141;29;20309;-83
2023/05/28 02:55:13;;;;;;;5.53;3.10;;;7.50;92.20;;;;;;4608926;30;20262;-84
2023/05/28 03:25:35;;;;;;;3.87;2.70;;;8.20;91.90;;;;;;4760546;28;20329;-83
2023/05/28 03:56:04;;;;;;;3.97;3.10;;;9.40;82.90;;;;;;4882649;28;20766;-85
2023/05/28 04:21:22;;;;;;;4.57;2.83;;;10.50;81.00;;;;;;4842373;28;20637;-85
2023/05/28 04:51:54;;;;;;;7.40;2.67;;;11.80;79.00;;;;;;4883768;28;20213;-83
2023/05/28 05:17:20;;;;;;;4.03;2.47;;;12.30;77.20;;;;;;4867616;28;20289;-84
2023/05/28 05:42:40;;;;;;;2.80;2.23;;;13.20;75.30;;;;;;4799318;28;20635;-85
2023/05/28 06:02:49;;;;;;;3.97;2.10;;;14.10;71.20;;;;;;4598923;30;20610;-84
2023/05/28 06:28:07;;;;;;;2.90;1.77;;;15.30;60.50;;;;;;4624120;30;20224;-85
2023/05/28 06:58:14;;;;;;;3.00;1.70;;;16.30;48.90;;;;;;4718716;29;20633;-85
2023/05/28 07:24:00;;;;;;;2.00;1.40;;;17.80;45.90;;;;;;4849926;28;20198;-84
2023/05/28 07:43:53;;;;;;;2.97;1.13;;;17.80;44.00;;;;;;4701168;29;20458;-84
2023/05/28 08:09:41;;;;;;;1.93;1.10;;;18.40;43.20;;;;;;4659788;29;20223;-84
2023/05/28 08:35:01;;;;;;;1.30;1.20;;;18.30;42.20;;;;;;4613681;30;20243;-84
2023/05/28 09:00:29;;;;;;;3.10;1.50;;;18.50;42.90;;;;;;4837379;28;20219;-82
2023/05/28 09:04:49;;;;;;;2.77;1.23;;;18.70;41.30;;;;;;4738953;29;20558;-83
2023/05/28 09:25:38;;;;;;;3.90;1.97;;;18.70;41.70;;;;;;4741614;29;20245;-84
2023/05/28 09:55:35;;;;;;;2.17;1.60;;;19.30;42.00;;;;;;4641575;29;20626;-81
2023/05/28 10:11:16;;;;;;;4.70;2.03;;;18.10;40.70;;;;;;4730326;29;20212;-85
2023/05/28 10:46:42;;;;;;;5.13;1.50;;;19.00;41.80;;;;;;4754835;29;20241;-87
2023/05/28 11:07:09;;;;;;;3.77;1.87;;;19.20;41.00;;;;;;4665437;29;20740;-85
2023/05/28 11:32:21;;;;;;;3.90;1.43;;;19.20;42.10;;;;;;4594444;30;20217;-83
2023/05/28 13:49:32;;;;;;;2.25;1.52;;;22.80;39.70;;;;;;4679292;29;20224;-80
2023/05/28 14:40:11;;;;;;;2.47;1.65;;;23.70;37.80;;;;;;4701851;29;20208;-82
2023/05/28 15:10:35;;;;;;;4.90;1.48;;;23.50;36.50;;;;;;4680420;29;20208;-82
2023/05/28 15:25:05;;;;;;;1.63;1.52;;;24.20;36.80;;;;;;4792594;29;21057;-83
2023/05/28 15:45:56;;;;;;;2.72;1.60;;;25.10;35.70;;;;;;4726353;29;20668;-82
2023/05/28 16:11:03;;;;;;;2.65;1.77;;;22.60;36.80;;;;;;4573826;30;20595;-83
2023/05/28 17:01:55;;;;;;;3.93;1.80;;;20.30;39.80;;;;;;4582159;30;20578;-82
2023/05/28 17:27:31;;;;;;;4.03;2.40;;;19.90;41.60;;;;;;4607815;30;20239;-81
2023/05/28 17:31:51;;;;;;;3.97;1.97;;;19.80;41.00;;;;;;4551046;30;21001;-83
2023/05/28 17:57:37;;;;;;;2.00;1.63;;;18.80;42.80;;;;;;4554153;30;20664;-83
2023/05/28 18:33:19;;;;;;;2.50;2.07;;;16.80;56.80;;;;;;4734729;29;20190;-83
2023/05/28 19:03:33;;;;;;;5.73;2.60;;;15.10;81.50;;;;;;4761827;29;20230;-84
2023/05/28 19:23:58;;;;;;;9.27;4.50;;;14.20;84.30;;;;;;4703278;29;20289;-83
2023/05/28 19:49:28;;;;;;;6.53;4.17;;;13.60;89.20;;;;;;4705970;29;20213;-83
2023/05/28 20:29:26;;;;;;;5.97;3.83;;;12.60;92.90;;;;;;4675734;29;20569;-83
2023/05/28 20:54:58;;;;;;;7.40;4.43;;;11.90;95.70;;;;;;4580254;30;20616;-84
2023/05/28 21:20:45;;;;;;;7.40;4.57;;;11.30;99.90;;;;;;4581537;30;20621;-83
2023/05/28 21:40:30;;;;;;;12.40;4.87;;;11.30;99.90;;;;;;4631670;30;20472;-82
2023/05/28 22:16:30;;;;;;;10.60;6.60;;;10.60;99.90;;;;;;4703488;29;20240;-82
2023/05/28 22:41:42;;;;;;;9.43;5.57;;;10.30;99.90;;;;;;4645760;29;20302;-84
2023/05/28 23:12:06;;;;;;;8.77;5.80;;;10.10;99.90;;;;;;4626511;29;20712;-81
2023/05/28 23:32:03;;;;;;;12.17;8.23;;;9.70;99.90;;;;;;4514629;30;20548;-81
